sensor_id;sensor_type;location;lat;lon;timestamp;P1;durP1;ratioP1;P2;durP2;ratioP2
22606;SDS011;11470;20.968;105.834;2023-03-03T00:01:30;187.25;;;117.82;;
22606;SDS011;11470;20.968;105.834;2023-03-03T00:06:37;190.57;;;116.30;;
22606;SDS011;11470;20.968;105.834;2023-03-03T00:16:52;204.50;;;127.50;;
22606;SDS011;11470;20.968;105.834;2023-03-03T00:21:59;181.05;;;120.65;;
22606;SDS011;11470;20.968;105.834;2023-03-03T00:27:23;189.85;;;125.45;;
22606;SDS011;11470;20.968;105.834;2023-03-03T00:32:44;196.00;;;124.68;;
22606;SDS011;11470;20.968;105.834;2023-03-03T00:37:58;155.55;;;100.80;;
22606;SDS011;11470;20.968;105.834;2023-03-03T00:43:38;169.63;;;108.03;;
22606;SDS011;11470;20.968;105.834;2023-03-03T00:48:42;187.32;;;119.45;;
22606;SDS011;11470;20.968;105.834;2023-03-03T00:53:48;186.48;;;117.10;;
22606;SDS011;11470;20.968;105.834;2023-03-03T00:58:55;185.05;;;116.03;;
22606;SDS011;11470;20.968;105.834;2023-03-03T01:04:04;166.13;;;104.43;;
22606;SDS011;11470;20.968;105.834;2023-03-03T01:09:11;169.82;;;109.85;;
22606;SDS011;11470;20.968;105.834;2023-03-03T01:19:25;137.18;;;90.50;;
22606;SDS011;11470;20.968;105.834;2023-03-03T01:29:36;166.57;;;104.32;;
22606;SDS011;11470;20.968;105.834;2023-03-03T01:34:43;157.05;;;97.53;;
22606;SDS011;11470;20.968;105.834;2023-03-03T01:39:50;156.68;;;99.03;;
22606;SDS011;11470;20.968;105.834;2023-03-03T01:45:14;143.20;;;93.05;;
22606;SDS011;11470;20.968;105.834;2023-03-03T01:50:29;144.77;;;95.13;;
22606;SDS011;11470;20.968;105.834;2023-03-03T01:55:45;141.35;;;93.78;;
22606;SDS011;11470;20.968;105.834;2023-03-03T02:00:56;159.95;;;103.82;;
22606;SDS011;11470;20.968;105.834;2023-03-03T02:06:10;148.82;;;95.07;;
22606;SDS011;11470;20.968;105.834;2023-03-03T02:11:20;139.85;;;90.85;;
22606;SDS011;11470;20.968;105.834;2023-03-03T02:16:28;140.80;;;84.65;;
22606;SDS011;11470;20.968;105.834;2023-03-03T02:21:34;132.88;;;87.65;;
22606;SDS011;11470;20.968;105.834;2023-03-03T02:26:40;128.90;;;84.38;;
22606;SDS011;11470;20.968;105.834;2023-03-03T02:31:49;142.93;;;92.47;;
22606;SDS011;11470;20.968;105.834;2023-03-03T02:36:56;153.88;;;97.70;;
22606;SDS011;11470;20.968;105.834;2023-03-03T02:42:11;149.38;;;91.90;;
22606;SDS011;11470;20.968;105.834;2023-03-03T02:47:32;131.32;;;86.55;;
22606;SDS011;11470;20.968;105.834;2023-03-03T02:52:38;157.00;;;100.07;;
22606;SDS011;11470;20.968;105.834;2023-03-03T02:57:45;138.38;;;92.57;;
22606;SDS011;11470;20.968;105.834;2023-03-03T03:02:52;146.48;;;92.72;;
22606;SDS011;11470;20.968;105.834;2023-03-03T03:07:58;149.05;;;94.63;;
22606;SDS011;11470;20.968;105.834;2023-03-03T03:13:05;135.60;;;84.05;;
22606;SDS011;11470;20.968;105.834;2023-03-03T03:18:13;139.80;;;91.63;;
22606;SDS011;11470;20.968;105.834;2023-03-03T03:23:20;127.95;;;72.55;;
22606;SDS011;11470;20.968;105.834;2023-03-03T03:28:27;113.75;;;71.95;;
22606;SDS011;11470;20.968;105.834;2023-03-03T03:33:33;104.15;;;62.65;;
22606;SDS011;11470;20.968;105.834;2023-03-03T03:38:41;92.55;;;53.95;;
22606;SDS011;11470;20.968;105.834;2023-03-03T03:43:48;120.80;;;73.30;;
22606;SDS011;11470;20.968;105.834;2023-03-03T03:48:56;126.88;;;79.07;;
22606;SDS011;11470;20.968;105.834;2023-03-03T03:54:03;124.38;;;74.68;;
22606;SDS011;11470;20.968;105.834;2023-03-03T03:59:11;125.68;;;80.45;;
22606;SDS011;11470;20.968;105.834;2023-03-03T04:04:22;133.88;;;82.30;;
22606;SDS011;11470;20.968;105.834;2023-03-03T04:09:28;122.40;;;75.50;;
22606;SDS011;11470;20.968;105.834;2023-03-03T04:14:35;125.82;;;80.50;;
22606;SDS011;11470;20.968;105.834;2023-03-03T04:19:42;126.72;;;79.60;;
22606;SDS011;11470;20.968;105.834;2023-03-03T04:24:49;112.18;;;70.70;;
22606;SDS011;11470;20.968;105.834;2023-03-03T04:30:03;85.45;;;42.30;;
22606;SDS011;11470;20.968;105.834;2023-03-03T04:35:13;118.45;;;76.05;;
22606;SDS011;11470;20.968;105.834;2023-03-03T04:40:19;125.78;;;77.25;;
22606;SDS011;11470;20.968;105.834;2023-03-03T04:45:26;122.57;;;80.70;;
22606;SDS011;11470;20.968;105.834;2023-03-03T04:50:32;124.40;;;82.03;;
22606;SDS011;11470;20.968;105.834;2023-03-03T04:55:39;116.53;;;76.93;;
22606;SDS011;11470;20.968;105.834;2023-03-03T05:00:52;119.88;;;72.53;;
22606;SDS011;11470;20.968;105.834;2023-03-03T05:06:03;136.88;;;86.03;;
22606;SDS011;11470;20.968;105.834;2023-03-03T05:11:09;133.52;;;80.75;;
22606;SDS011;11470;20.968;105.834;2023-03-03T05:16:15;139.65;;;81.13;;
22606;SDS011;11470;20.968;105.834;2023-03-03T05:21:22;112.05;;;70.43;;
22606;SDS011;11470;20.968;105.834;2023-03-03T05:26:29;125.57;;;80.97;;
22606;SDS011;11470;20.968;105.834;2023-03-03T05:31:35;113.18;;;75.93;;
22606;SDS011;11470;20.968;105.834;2023-03-03T05:36:42;112.82;;;76.57;;
22606;SDS011;11470;20.968;105.834;2023-03-03T05:41:48;116.65;;;77.22;;
22606;SDS011;11470;20.968;105.834;2023-03-03T05:46:55;120.60;;;64.55;;
22606;SDS011;11470;20.968;105.834;2023-03-03T05:52:02;113.05;;;75.63;;
22606;SDS011;11470;20.968;105.834;2023-03-03T06:02:14;81.65;;;43.38;;
22606;SDS011;11470;20.968;105.834;2023-03-03T06:07:21;125.97;;;78.07;;
22606;SDS011;11470;20.968;105.834;2023-03-03T06:12:27;122.20;;;75.13;;
22606;SDS011;11470;20.968;105.834;2023-03-03T06:17:33;127.65;;;74.43;;
22606;SDS011;11470;20.968;105.834;2023-03-03T06:22:39;109.45;;;60.92;;
22606;SDS011;11470;20.968;105.834;2023-03-03T06:27:47;67.68;;;32.97;;
22606;SDS011;11470;20.968;105.834;2023-03-03T06:32:53;112.07;;;69.90;;
22606;SDS011;11470;20.968;105.834;2023-03-03T06:38:01;85.95;;;34.80;;
22606;SDS011;11470;20.968;105.834;2023-03-03T06:43:07;89.82;;;45.45;;
22606;SDS011;11470;20.968;105.834;2023-03-03T06:48:13;111.18;;;62.17;;
22606;SDS011;11470;20.968;105.834;2023-03-03T06:53:20;105.10;;;55.60;;
22606;SDS011;11470;20.968;105.834;2023-03-03T06:58:27;106.25;;;58.17;;
22606;SDS011;11470;20.968;105.834;2023-03-03T07:03:33;95.35;;;41.40;;
22606;SDS011;11470;20.968;105.834;2023-03-03T07:08:40;77.53;;;35.50;;
22606;SDS011;11470;20.968;105.834;2023-03-03T07:13:47;93.22;;;40.60;;
22606;SDS011;11470;20.968;105.834;2023-03-03T07:18:59;108.60;;;43.53;;
22606;SDS011;11470;20.968;105.834;2023-03-03T07:24:17;109.40;;;44.92;;
22606;SDS011;11470;20.968;105.834;2023-03-03T07:29:31;73.07;;;36.00;;
22606;SDS011;11470;20.968;105.834;2023-03-03T07:34:45;48.50;;;23.77;;
22606;SDS011;11470;20.968;105.834;2023-03-03T07:39:54;97.57;;;42.38;;
22606;SDS011;11470;20.968;105.834;2023-03-03T07:45:00;77.65;;;34.90;;
22606;SDS011;11470;20.968;105.834;2023-03-03T07:50:15;110.20;;;56.22;;
22606;SDS011;11470;20.968;105.834;2023-03-03T07:55:35;81.60;;;35.53;;
22606;SDS011;11470;20.968;105.834;2023-03-03T08:05:51;88.95;;;36.28;;
22606;SDS011;11470;20.968;105.834;2023-03-03T08:11:04;74.95;;;32.78;;
22606;SDS011;11470;20.968;105.834;2023-03-03T08:16:35;105.53;;;54.45;;
22606;SDS011;11470;20.968;105.834;2023-03-03T08:21:51;99.45;;;60.20;;
22606;SDS011;11470;20.968;105.834;2023-03-03T08:27:03;104.93;;;60.00;;
22606;SDS011;11470;20.968;105.834;2023-03-03T08:32:11;76.38;;;38.70;;
22606;SDS011;11470;20.968;105.834;2023-03-03T08:37:21;99.60;;;54.45;;
22606;SDS011;11470;20.968;105.834;2023-03-03T08:42:42;73.00;;;37.90;;
22606;SDS011;11470;20.968;105.834;2023-03-03T08:47:57;96.88;;;46.78;;
22606;SDS011;11470;20.968;105.834;2023-03-03T08:53:08;89.82;;;53.15;;
22606;SDS011;11470;20.968;105.834;2023-03-03T08:58:16;103.28;;;58.55;;
22606;SDS011;11470;20.968;105.834;2023-03-03T09:03:36;96.53;;;58.70;;
22606;SDS011;11470;20.968;105.834;2023-03-03T09:08:43;94.35;;;57.35;;
22606;SDS011;11470;20.968;105.834;2023-03-03T09:13:49;94.03;;;55.22;;
22606;SDS011;11470;20.968;105.834;2023-03-03T09:18:59;97.18;;;53.90;;
22606;SDS011;11470;20.968;105.834;2023-03-03T09:29:36;89.15;;;54.20;;
22606;SDS011;11470;20.968;105.834;2023-03-03T09:34:42;92.80;;;48.65;;
22606;SDS011;11470;20.968;105.834;2023-03-03T09:39:50;87.25;;;50.95;;
22606;SDS011;11470;20.968;105.834;2023-03-03T09:55:47;97.13;;;58.10;;
22606;SDS011;11470;20.968;105.834;2023-03-03T10:18:29;84.15;;;50.60;;
22606;SDS011;11470;20.968;105.834;2023-03-03T10:34:52;84.83;;;57.47;;
22606;SDS011;11470;20.968;105.834;2023-03-03T10:40:08;86.03;;;54.53;;
22606;SDS011;11470;20.968;105.834;2023-03-03T10:45:30;93.93;;;55.97;;
22606;SDS011;11470;20.968;105.834;2023-03-03T11:39:43;85.05;;;54.45;;
22606;SDS011;11470;20.968;105.834;2023-03-03T11:44:56;87.88;;;54.63;;
22606;SDS011;11470;20.968;105.834;2023-03-03T12:13:44;88.70;;;56.17;;
22606;SDS011;11470;20.968;105.834;2023-03-03T12:26:40;106.90;;;61.50;;
22606;SDS011;11470;20.968;105.834;2023-03-03T12:32:57;90.88;;;58.72;;
22606;SDS011;11470;20.968;105.834;2023-03-03T12:56:25;92.72;;;57.08;;
22606;SDS011;11470;20.968;105.834;2023-03-03T13:01:44;101.80;;;57.37;;
22606;SDS011;11470;20.968;105.834;2023-03-03T13:31:54;100.22;;;58.15;;
22606;SDS011;11470;20.968;105.834;2023-03-03T13:37:20;104.40;;;58.42;;
22606;SDS011;11470;20.968;105.834;2023-03-03T13:44:08;97.78;;;57.55;;
22606;SDS011;11470;20.968;105.834;2023-03-03T13:49:31;94.85;;;58.65;;
22606;SDS011;11470;20.968;105.834;2023-03-03T14:13:32;103.80;;;60.78;;
22606;SDS011;11470;20.968;105.834;2023-03-03T14:19:24;100.40;;;59.20;;
22606;SDS011;11470;20.968;105.834;2023-03-03T14:35:43;101.07;;;65.45;;
22606;SDS011;11470;20.968;105.834;2023-03-03T14:41:18;113.05;;;62.85;;
22606;SDS011;11470;20.968;105.834;2023-03-03T14:46:38;86.15;;;57.53;;
22606;SDS011;11470;20.968;105.834;2023-03-03T14:51:47;99.03;;;58.55;;
22606;SDS011;11470;20.968;105.834;2023-03-03T15:44:20;85.53;;;53.47;;
22606;SDS011;11470;20.968;105.834;2023-03-03T16:23:35;99.68;;;61.50;;
22606;SDS011;11470;20.968;105.834;2023-03-03T16:28:55;98.50;;;59.30;;
22606;SDS011;11470;20.968;105.834;2023-03-03T16:56:20;107.00;;;61.47;;
22606;SDS011;11470;20.968;105.834;2023-03-03T17:25:11;99.38;;;61.13;;
22606;SDS011;11470;20.968;105.834;2023-03-03T17:54:53;107.15;;;62.63;;
22606;SDS011;11470;20.968;105.834;2023-03-03T18:06:09;101.68;;;62.80;;
22606;SDS011;11470;20.968;105.834;2023-03-03T18:17:00;124.00;;;73.97;;
22606;SDS011;11470;20.968;105.834;2023-03-03T18:22:31;103.85;;;64.70;;
22606;SDS011;11470;20.968;105.834;2023-03-03T18:33:09;89.68;;;57.45;;
22606;SDS011;11470;20.968;105.834;2023-03-03T18:43:46;87.32;;;56.35;;
22606;SDS011;11470;20.968;105.834;2023-03-03T18:49:06;85.93;;;52.90;;
22606;SDS011;11470;20.968;105.834;2023-03-03T18:54:28;77.63;;;52.97;;
22606;SDS011;11470;20.968;105.834;2023-03-03T18:59:54;84.13;;;52.40;;
22606;SDS011;11470;20.968;105.834;2023-03-03T19:05:26;92.43;;;55.40;;
22606;SDS011;11470;20.968;105.834;2023-03-03T19:16:36;99.65;;;62.92;;
22606;SDS011;11470;20.968;105.834;2023-03-03T19:22:18;90.60;;;59.50;;
22606;SDS011;11470;20.968;105.834;2023-03-03T19:27:34;96.85;;;59.47;;
22606;SDS011;11470;20.968;105.834;2023-03-03T19:38:34;104.95;;;62.72;;
22606;SDS011;11470;20.968;105.834;2023-03-03T19:43:53;107.57;;;64.65;;
22606;SDS011;11470;20.968;105.834;2023-03-03T20:10:53;109.95;;;69.78;;
22606;SDS011;11470;20.968;105.834;2023-03-03T20:16:36;145.77;;;87.60;;
22606;SDS011;11470;20.968;105.834;2023-03-03T20:39:11;98.32;;;63.70;;
22606;SDS011;11470;20.968;105.834;2023-03-03T20:54:57;119.72;;;78.53;;
22606;SDS011;11470;20.968;105.834;2023-03-03T21:00:24;109.40;;;71.90;;
22606;SDS011;11470;20.968;105.834;2023-03-03T21:05:52;112.57;;;71.57;;
22606;SDS011;11470;20.968;105.834;2023-03-03T21:11:04;114.72;;;70.65;;
22606;SDS011;11470;20.968;105.834;2023-03-03T21:21:27;102.75;;;65.72;;
22606;SDS011;11470;20.968;105.834;2023-03-03T21:38:02;76.55;;;46.35;;
22606;SDS011;11470;20.968;105.834;2023-03-03T21:43:08;110.22;;;72.65;;
22606;SDS011;11470;20.968;105.834;2023-03-03T21:48:44;84.60;;;57.42;;
22606;SDS011;11470;20.968;105.834;2023-03-03T21:53:51;85.43;;;54.33;;
22606;SDS011;11470;20.968;105.834;2023-03-03T21:58:58;98.78;;;64.72;;
22606;SDS011;11470;20.968;105.834;2023-03-03T22:04:04;81.03;;;52.80;;
22606;SDS011;11470;20.968;105.834;2023-03-03T22:09:10;89.35;;;61.70;;
22606;SDS011;11470;20.968;105.834;2023-03-03T22:14:17;77.07;;;52.20;;
22606;SDS011;11470;20.968;105.834;2023-03-03T22:19:23;83.82;;;53.95;;
22606;SDS011;11470;20.968;105.834;2023-03-03T22:24:30;83.25;;;51.85;;
22606;SDS011;11470;20.968;105.834;2023-03-03T22:29:37;79.80;;;48.88;;
22606;SDS011;11470;20.968;105.834;2023-03-03T22:34:44;88.13;;;52.92;;
22606;SDS011;11470;20.968;105.834;2023-03-03T22:39:51;79.55;;;51.58;;
22606;SDS011;11470;20.968;105.834;2023-03-03T22:44:58;68.85;;;43.00;;
22606;SDS011;11470;20.968;105.834;2023-03-03T22:50:05;75.93;;;48.92;;
22606;SDS011;11470;20.968;105.834;2023-03-03T22:55:11;77.57;;;48.92;;
22606;SDS011;11470;20.968;105.834;2023-03-03T23:05:25;75.50;;;43.65;;
22606;SDS011;11470;20.968;105.834;2023-03-03T23:10:31;63.20;;;32.80;;
22606;SDS011;11470;20.968;105.834;2023-03-03T23:21:23;64.40;;;36.28;;
22606;SDS011;11470;20.968;105.834;2023-03-03T23:26:30;65.70;;;39.13;;
22606;SDS011;11470;20.968;105.834;2023-03-03T23:31:36;64.40;;;38.83;;
22606;SDS011;11470;20.968;105.834;2023-03-03T23:41:49;50.47;;;26.93;;
22606;SDS011;11470;20.968;105.834;2023-03-03T23:52:02;65.05;;;38.17;;
22606;SDS011;11470;20.968;105.834;2023-03-03T23:57:10;56.05;;;32.58;;
